Time;durP1;ratioP1;P1;durP2;ratioP2;P2;SDS_P1;SDS_P2;PMS_P1;PMS_P2;Temp;Humidity;BMP_temperature;BMP_pressure;BME280_temperature;BME280_humidity;BME280_pressure;Samples;Min_cycle;Max_cycle;Signal;HPM_P1;HPM_P2
2024/01/11 00:00:51;;;;;;;32.10;21.73;;;-3.50;99.90;;;;;;5073386;28;20048;-75
2024/01/11 00:03:16;;;;;;;32.97;21.73;;;-3.50;99.90;;;;;;5073457;28;20407;-76
2024/01/11 00:05:42;;;;;;;36.13;23.23;;;-3.60;99.90;;;;;;5073452;28;20117;-75
2024/01/11 00:08:08;;;;;;;33.45;21.98;;;-3.60;99.90;;;;;;5072063;28;20052;-75
2024/01/11 00:10:34;;;;;;;33.20;23.20;;;-3.60;99.90;;;;;;5073388;28;20089;-77
2024/01/11 00:13:00;;;;;;;33.80;23.00;;;-3.60;99.90;;;;;;5073012;28;20452;-75
2024/01/11 00:15:25;;;;;;;34.50;23.83;;;-3.60;99.90;;;;;;5073108;28;20491;-76
2024/01/11 00:17:51;;;;;;;35.30;22.63;;;-3.60;99.90;;;;;;5072774;28;20044;-76
2024/01/11 00:20:17;;;;;;;31.60;21.70;;;-3.70;99.90;;;;;;5073491;28;20051;-75
2024/01/11 00:22:42;;;;;;;34.60;24.27;;;-3.70;99.90;;;;;;5073333;28;20094;-75
2024/01/11 00:25:08;;;;;;;37.20;23.80;;;-3.60;99.90;;;;;;5072884;28;20045;-75
2024/01/11 00:27:34;;;;;;;31.87;22.13;;;-3.60;99.90;;;;;;5072039;28;20052;-75
2024/01/11 00:29:59;;;;;;;35.43;23.60;;;-3.70;99.90;;;;;;5071128;28;20063;-75
2024/01/11 00:32:26;;;;;;;32.67;23.47;;;-3.60;99.90;;;;;;5070970;28;20059;-76
2024/01/11 00:34:52;;;;;;;35.35;24.10;;;-3.70;99.90;;;;;;5071049;28;20483;-75
2024/01/11 00:37:18;;;;;;;38.83;24.83;;;-3.70;99.90;;;;;;5071317;28;20051;-76
2024/01/11 00:39:43;;;;;;;38.30;24.90;;;-3.70;99.90;;;;;;5071207;28;20048;-76
2024/01/11 00:42:10;;;;;;;37.53;25.77;;;-3.60;99.90;;;;;;5071401;28;20040;-76
2024/01/11 00:44:35;;;;;;;36.13;24.05;;;-3.60;99.90;;;;;;5072389;28;20119;-76
2024/01/11 00:47:01;;;;;;;34.77;23.50;;;-3.70;99.90;;;;;;5072333;28;20528;-76
2024/01/11 00:49:27;;;;;;;36.67;24.17;;;-3.60;99.90;;;;;;5072863;28;20064;-76
2024/01/11 00:51:52;;;;;;;36.03;23.87;;;-3.60;99.90;;;;;;5072731;28;20057;-75
2024/01/11 00:54:18;;;;;;;33.70;23.13;;;-3.60;99.90;;;;;;5071852;28;20052;-76
2024/01/11 00:56:44;;;;;;;36.63;24.63;;;-3.60;99.90;;;;;;5072874;28;20041;-76
2024/01/11 00:59:09;;;;;;;35.90;25.03;;;-3.60;99.90;;;;;;5072657;28;20127;-75
2024/01/11 01:01:35;;;;;;;37.70;24.20;;;-3.70;99.90;;;;;;5072798;28;20478;-75
2024/01/11 01:04:01;;;;;;;39.10;25.67;;;-3.70;99.90;;;;;;5072717;28;20129;-75
2024/01/11 01:06:27;;;;;;;39.33;26.63;;;-3.70;99.90;;;;;;5072992;28;20049;-76
2024/01/11 01:08:55;;;;;;;38.45;25.67;;;-3.70;99.90;;;;;;5072706;28;20056;-76
2024/01/11 01:11:20;;;;;;;36.10;24.40;;;-3.70;99.90;;;;;;5072709;28;20052;-75
2024/01/11 01:13:46;;;;;;;36.63;24.50;;;-3.70;99.90;;;;;;5071781;28;20387;-76
2024/01/11 01:16:12;;;;;;;37.43;25.03;;;-3.80;99.90;;;;;;5072266;28;20084;-75
2024/01/11 01:18:37;;;;;;;41.10;26.33;;;-3.80;99.90;;;;;;5072730;28;20091;-76
2024/01/11 01:21:06;;;;;;;38.07;25.87;;;-3.80;99.90;;;;;;5072521;28;20182;-75
2024/01/11 01:23:32;;;;;;;37.40;24.50;;;-3.80;99.90;;;;;;5072538;28;20094;-76
2024/01/11 01:25:58;;;;;;;37.50;24.60;;;-3.80;99.90;;;;;;5072355;28;20044;-76
2024/01/11 01:28:23;;;;;;;40.17;25.77;;;-3.80;99.90;;;;;;5072495;28;20414;-76
2024/01/11 01:30:49;;;;;;;39.37;26.07;;;-3.80;99.90;;;;;;5072368;28;20098;-76
2024/01/11 01:33:15;;;;;;;37.83;25.10;;;-3.80;99.90;;;;;;5072373;28;20393;-76
2024/01/11 01:35:41;;;;;;;39.70;26.77;;;-3.90;99.90;;;;;;5072400;28;20041;-77
2024/01/11 01:38:06;;;;;;;40.47;26.67;;;-3.80;99.90;;;;;;5072100;28;20045;-76
2024/01/11 01:40:32;;;;;;;39.33;26.57;;;-3.80;99.90;;;;;;5071279;28;20051;-76
2024/01/11 01:42:59;;;;;;;39.60;25.90;;;-3.80;99.90;;;;;;5072332;28;20131;-76
2024/01/11 01:45:25;;;;;;;38.80;26.20;;;-3.80;99.90;;;;;;5072198;28;20102;-76
2024/01/11 01:47:51;;;;;;;42.77;26.80;;;-3.80;99.90;;;;;;5072378;28;20049;-76
2024/01/11 01:50:18;;;;;;;41.80;26.80;;;-3.80;99.90;;;;;;5072326;28;20078;-76
2024/01/11 01:52:44;;;;;;;40.50;26.42;;;-3.80;99.90;;;;;;5072169;28;20055;-76
2024/01/11 01:55:12;;;;;;;41.92;26.13;;;-3.80;99.90;;;;;;5071939;28;20045;-76
2024/01/11 01:57:39;;;;;;;42.35;27.92;;;-3.80;99.90;;;;;;5073837;28;20087;-76
2024/01/11 02:00:06;;;;;;;44.78;27.80;;;-3.80;99.90;;;;;;5075428;28;20048;-76
2024/01/11 02:02:34;;;;;;;43.03;26.73;;;-3.80;99.90;;;;;;5075871;28;20044;-76
2024/01/11 02:05:01;;;;;;;43.15;27.02;;;-3.80;99.90;;;;;;5075886;28;20146;-76
2024/01/11 02:07:27;;;;;;;43.17;27.35;;;-3.80;99.90;;;;;;5075550;28;20101;-76
2024/01/11 02:09:52;;;;;;;41.03;27.13;;;-3.90;99.90;;;;;;5075685;28;20465;-76
2024/01/11 02:12:18;;;;;;;44.00;28.00;;;-3.90;99.90;;;;;;5074466;28;20139;-76
2024/01/11 02:14:44;;;;;;;42.90;27.03;;;-3.80;99.90;;;;;;5075364;28;20041;-76
2024/01/11 02:17:10;;;;;;;45.40;29.15;;;-3.90;99.90;;;;;;5075499;28;20052;-76
2024/01/11 02:19:36;;;;;;;47.07;28.13;;;-3.90;99.90;;;;;;5075546;28;20401;-76
2024/01/11 02:22:11;;;;;;;41.60;27.43;;;-3.80;99.90;;;;;;5075401;28;20044;-76
2024/01/11 02:24:37;;;;;;;43.55;28.75;;;-3.80;99.90;;;;;;5075543;28;20127;-76
2024/01/11 02:27:04;;;;;;;46.60;29.70;;;-3.80;99.90;;;;;;5075117;28;20148;-76
2024/01/11 02:29:31;;;;;;;41.58;28.15;;;-3.80;99.90;;;;;;5073428;28;20056;-76
2024/01/11 02:31:58;;;;;;;43.75;28.90;;;-3.70;99.90;;;;;;5073281;28;20044;-76
2024/01/11 02:34:26;;;;;;;42.63;27.83;;;-3.70;99.90;;;;;;5073056;28;20045;-76
2024/01/11 02:36:52;;;;;;;45.05;28.92;;;-3.60;99.90;;;;;;5073415;28;20282;-76
2024/01/11 02:39:19;;;;;;;45.35;29.27;;;-3.60;99.90;;;;;;5072091;28;20505;-75
2024/01/11 02:41:47;;;;;;;43.08;27.38;;;-3.70;99.90;;;;;;5073083;28;20036;-76
2024/01/11 02:44:13;;;;;;;43.50;27.75;;;-3.60;99.90;;;;;;5074018;28;20048;-76
2024/01/11 02:46:38;;;;;;;47.23;30.07;;;-3.60;99.90;;;;;;5075095;28;20047;-76
2024/01/11 02:49:04;;;;;;;42.67;28.60;;;-3.60;99.90;;;;;;5074595;28;20060;-76
2024/01/11 02:51:30;;;;;;;45.87;28.27;;;-3.70;99.90;;;;;;5074647;28;20054;-76
2024/01/11 02:53:55;;;;;;;43.70;29.30;;;-3.70;99.90;;;;;;5074660;28;20045;-76
2024/01/11 02:56:21;;;;;;;45.77;27.73;;;-3.70;99.90;;;;;;5074287;28;20040;-75
2024/01/11 02:58:47;;;;;;;40.40;27.00;;;-3.70;99.90;;;;;;5074794;28;20555;-75
2024/01/11 03:01:12;;;;;;;45.13;29.00;;;-3.60;99.90;;;;;;5074549;28;20048;-75
2024/01/11 03:03:38;;;;;;;42.73;28.40;;;-3.50;99.90;;;;;;5074774;28;20071;-76
2024/01/11 03:06:04;;;;;;;46.20;30.17;;;-3.60;99.90;;;;;;5074646;28;20515;-76
2024/01/11 03:08:30;;;;;;;44.80;29.03;;;-3.60;99.90;;;;;;5073595;28;20098;-75
2024/01/11 03:10:55;;;;;;;42.17;28.23;;;-3.60;99.90;;;;;;5074418;28;20478;-75
2024/01/11 03:13:23;;;;;;;42.63;28.70;;;-3.50;99.90;;;;;;5073146;28;20045;-75
2024/01/11 03:15:48;;;;;;;41.17;27.13;;;-3.50;99.90;;;;;;5074388;28;20043;-76
2024/01/11 03:18:15;;;;;;;43.17;28.20;;;-3.50;99.90;;;;;;5074112;28;20044;-76
2024/01/11 03:20:41;;;;;;;43.03;27.85;;;-3.50;99.90;;;;;;5073399;28;20044;-76
2024/01/11 03:23:06;;;;;;;42.20;27.40;;;-3.50;99.90;;;;;;5074260;28;20147;-76
2024/01/11 03:25:32;;;;;;;42.73;28.20;;;-3.50;99.90;;;;;;5072899;28;20056;-76
2024/01/11 03:28:01;;;;;;;46.87;30.00;;;-3.50;99.90;;;;;;5074311;28;20116;-76
2024/01/11 03:30:27;;;;;;;43.45;28.00;;;-3.60;99.90;;;;;;5074044;28;20041;-75
2024/01/11 03:32:53;;;;;;;41.78;27.25;;;-3.50;99.90;;;;;;5073960;28;20094;-76
2024/01/11 03:35:20;;;;;;;43.60;28.53;;;-3.50;99.90;;;;;;5073835;28;20080;-75
2024/01/11 03:37:46;;;;;;;44.08;29.30;;;-3.50;99.90;;;;;;5073888;28;20037;-76
2024/01/11 03:40:12;;;;;;;40.77;27.43;;;-3.50;99.90;;;;;;5073766;28;20055;-76
2024/01/11 03:42:38;;;;;;;41.97;28.13;;;-3.50;99.90;;;;;;5073766;28;20040;-76
2024/01/11 03:45:04;;;;;;;42.77;27.37;;;-3.50;99.90;;;;;;5074022;28;20504;-76
2024/01/11 03:47:30;;;;;;;44.17;27.88;;;-3.50;99.90;;;;;;5073557;28;20051;-76
2024/01/11 03:49:56;;;;;;;41.70;27.80;;;-3.40;99.90;;;;;;5073594;28;20056;-75
2024/01/11 03:52:22;;;;;;;42.28;27.98;;;-3.50;99.90;;;;;;5073601;28;20470;-75
2024/01/11 03:54:48;;;;;;;43.78;28.02;;;-3.50;99.90;;;;;;5073485;28;20187;-76
2024/01/11 03:57:14;;;;;;;43.45;27.45;;;-3.50;99.90;;;;;;5073758;28;20052;-76
2024/01/11 03:59:40;;;;;;;45.88;28.08;;;-3.50;99.90;;;;;;5073482;28;20133;-75
2024/01/11 04:02:06;;;;;;;43.33;28.52;;;-3.50;99.90;;;;;;5073635;28;20041;-76
2024/01/11 04:04:33;;;;;;;47.13;30.25;;;-3.50;99.90;;;;;;5073157;28;20391;-76
2024/01/11 04:06:58;;;;;;;40.70;28.13;;;-3.50;99.90;;;;;;5073496;28;20041;-76
2024/01/11 04:09:24;;;;;;;43.47;28.40;;;-3.50;99.90;;;;;;5072933;28;20611;-76
2024/01/11 04:11:50;;;;;;;43.57;28.60;;;-3.50;99.90;;;;;;5073473;28;20127;-76
2024/01/11 04:14:15;;;;;;;44.97;30.17;;;-3.50;99.90;;;;;;5073330;28;20071;-75
2024/01/11 04:16:44;;;;;;;43.60;28.97;;;-3.50;99.90;;;;;;5073192;28;20052;-76
2024/01/11 04:19:10;;;;;;;44.70;28.17;;;-3.50;99.90;;;;;;5073289;28;20052;-75
2024/01/11 04:21:38;;;;;;;44.40;29.47;;;-3.60;99.90;;;;;;5072055;28;20401;-75
2024/01/11 04:24:08;;;;;;;45.38;29.00;;;-3.60;99.90;;;;;;5072977;28;20402;-76
2024/01/11 04:26:34;;;;;;;43.83;28.20;;;-3.60;99.90;;;;;;5073028;28;20094;-75
2024/01/11 04:29:00;;;;;;;46.78;28.92;;;-3.60;99.90;;;;;;5073087;28;20044;-76
2024/01/11 04:31:26;;;;;;;45.43;29.17;;;-3.60;99.90;;;;;;5072931;28;20135;-75
2024/01/11 04:33:52;;;;;;;46.05;28.70;;;-3.60;99.90;;;;;;5071791;28;20127;-76
2024/01/11 04:36:18;;;;;;;46.57;30.20;;;-3.60;99.90;;;;;;5072904;28;20044;-75
2024/01/11 04:38:46;;;;;;;45.23;28.60;;;-3.60;99.90;;;;;;5072627;28;20508;-76
2024/01/11 04:41:13;;;;;;;42.42;27.95;;;-3.60;99.90;;;;;;5072004;28;20048;-76
2024/01/11 04:43:43;;;;;;;44.28;28.67;;;-3.60;99.90;;;;;;5072911;28;20093;-76
2024/01/11 04:46:22;;;;;;;45.78;29.08;;;-3.60;99.90;;;;;;5073093;28;20040;-76
2024/01/11 04:48:49;;;;;;;44.65;29.33;;;-3.60;99.90;;;;;;5072542;28;20060;-75
2024/01/11 04:51:16;;;;;;;45.20;28.13;;;-3.60;99.90;;;;;;5072821;28;20127;-76
2024/01/11 04:53:43;;;;;;;45.05;29.58;;;-3.60;99.90;;;;;;5072718;28;20048;-76
2024/01/11 04:56:11;;;;;;;49.15;29.80;;;-3.70;99.90;;;;;;5072599;28;20402;-76
2024/01/11 04:58:40;;;;;;;43.25;28.40;;;-3.60;99.90;;;;;;5071431;28;20044;-76
2024/01/11 05:01:06;;;;;;;47.25;29.45;;;-3.40;99.90;;;;;;5072755;28;20045;-76
2024/01/11 05:03:32;;;;;;;44.92;29.45;;;-3.50;99.90;;;;;;5072360;28;20045;-76
2024/01/11 05:05:59;;;;;;;44.43;29.00;;;-3.50;99.90;;;;;;5072812;28;20043;-76
2024/01/11 05:08:25;;;;;;;44.78;28.63;;;-3.40;99.90;;;;;;5072880;28;20379;-76
2024/01/11 05:10:51;;;;;;;47.03;29.25;;;-3.30;99.90;;;;;;5072642;28;20052;-76
2024/01/11 05:13:18;;;;;;;44.63;29.40;;;-3.20;99.90;;;;;;5072701;28;20440;-76
2024/01/11 05:15:44;;;;;;;46.72;30.50;;;-3.20;99.90;;;;;;5072400;28;20045;-76
2024/01/11 05:18:10;;;;;;;46.37;30.13;;;-3.20;99.90;;;;;;5071095;28;20044;-76
2024/01/11 05:20:36;;;;;;;47.85;29.63;;;-3.10;99.90;;;;;;5072556;28;20314;-76
2024/01/11 05:23:02;;;;;;;46.57;30.00;;;-3.10;99.90;;;;;;5071470;28;20083;-76
2024/01/11 05:25:27;;;;;;;45.00;30.23;;;-3.00;99.90;;;;;;5071641;28;20135;-76
2024/01/11 05:27:53;;;;;;;44.93;29.70;;;-3.00;99.90;;;;;;5072334;28;20052;-76
2024/01/11 05:30:19;;;;;;;45.60;30.67;;;-2.90;99.90;;;;;;5072492;28;20505;-76
2024/01/11 05:32:44;;;;;;;43.93;29.23;;;-2.90;99.90;;;;;;5074215;28;20048;-76
2024/01/11 05:35:10;;;;;;;46.53;29.67;;;-2.80;99.90;;;;;;5076592;28;20040;-76
2024/01/11 05:37:36;;;;;;;44.00;30.27;;;-2.90;99.90;;;;;;5076300;28;20153;-77
2024/01/11 05:40:02;;;;;;;45.92;30.98;;;-2.80;99.90;;;;;;5076541;28;20044;-76
2024/01/11 05:42:28;;;;;;;45.95;29.98;;;-2.80;99.90;;;;;;5076421;28;20059;-77
2024/01/11 05:44:54;;;;;;;50.40;30.77;;;-2.70;99.90;;;;;;5076017;28;20478;-77
2024/01/11 05:47:20;;;;;;;49.27;31.47;;;-2.60;99.90;;;;;;5076102;28;20044;-77
2024/01/11 05:49:46;;;;;;;44.07;29.53;;;-2.60;99.90;;;;;;5075465;28;20460;-77
2024/01/11 05:52:11;;;;;;;47.22;30.33;;;-2.60;99.90;;;;;;5074890;28;20036;-77
2024/01/11 05:54:37;;;;;;;45.60;30.13;;;-2.50;99.90;;;;;;5075792;28;20405;-76
2024/01/11 05:57:03;;;;;;;47.13;31.20;;;-2.50;99.90;;;;;;5075761;28;20048;-77
2024/01/11 05:59:28;;;;;;;45.60;30.47;;;-2.50;99.90;;;;;;5074711;28;20199;-77
2024/01/11 06:01:54;;;;;;;50.87;32.13;;;-2.50;99.90;;;;;;5075644;28;20058;-77
2024/01/11 06:04:20;;;;;;;51.20;33.40;;;-2.40;99.90;;;;;;5075923;28;20078;-77
2024/01/11 06:06:46;;;;;;;52.17;33.87;;;-2.50;99.90;;;;;;5075918;28;20045;-77
2024/01/11 06:09:11;;;;;;;55.00;36.10;;;-2.40;99.90;;;;;;5075758;28;20562;-78
2024/01/11 06:11:37;;;;;;;57.80;35.93;;;-2.40;99.90;;;;;;5075572;28;20052;-77
2024/01/11 06:14:03;;;;;;;55.03;34.43;;;-2.40;99.90;;;;;;5075746;28;20049;-77
2024/01/11 06:16:29;;;;;;;53.77;34.13;;;-2.40;99.90;;;;;;5075392;28;20464;-77
2024/01/11 06:18:54;;;;;;;52.00;33.17;;;-2.40;99.90;;;;;;5075175;28;20055;-77
2024/01/11 06:21:20;;;;;;;47.20;32.20;;;-2.30;99.90;;;;;;5075626;28;20044;-77
2024/01/11 06:23:46;;;;;;;48.63;32.10;;;-2.30;99.90;;;;;;5075331;28;20090;-77
2024/01/11 06:26:12;;;;;;;49.27;32.07;;;-2.20;99.90;;;;;;5075538;28;20529;-77
2024/01/11 06:28:37;;;;;;;48.87;32.57;;;-2.20;99.90;;;;;;5094633;28;20048;-77
2024/01/11 06:31:03;;;;;;;48.80;30.97;;;-2.20;99.90;;;;;;5095151;28;20101;-76
2024/01/11 06:33:29;;;;;;;50.50;31.57;;;-2.20;99.90;;;;;;5094299;28;20051;-77
2024/01/11 06:35:55;;;;;;;49.40;31.53;;;-2.20;99.90;;;;;;5095243;28;20040;-76
2024/01/11 06:38:21;;;;;;;51.47;32.65;;;-2.20;99.90;;;;;;5095477;28;20040;-78
2024/01/11 06:40:48;;;;;;;49.40;32.07;;;-2.10;99.90;;;;;;5095198;28;20036;-77
2024/01/11 06:43:14;;;;;;;50.58;32.97;;;-2.10;99.90;;;;;;5094637;28;20048;-77
2024/01/11 06:45:42;;;;;;;51.83;33.78;;;-2.10;99.90;;;;;;5094975;28;20048;-77
2024/01/11 06:48:08;;;;;;;51.67;32.95;;;-2.10;99.90;;;;;;5095287;28;20097;-77
2024/01/11 06:50:34;;;;;;;50.80;32.80;;;-2.10;99.90;;;;;;5095373;28;20064;-77
2024/01/11 06:53:01;;;;;;;47.03;30.83;;;-2.10;99.90;;;;;;5095089;28;20059;-77
2024/01/11 06:55:26;;;;;;;50.08;31.05;;;-2.00;99.90;;;;;;5093936;28;20051;-77
2024/01/11 06:57:52;;;;;;;45.57;30.53;;;-1.90;99.90;;;;;;5094858;28;20056;-77
2024/01/11 07:00:18;;;;;;;46.53;31.03;;;-2.00;99.90;;;;;;5094970;28;20047;-77
2024/01/11 07:02:44;;;;;;;44.90;30.13;;;-2.00;99.90;;;;;;5093723;28;20047;-76
2024/01/11 07:05:09;;;;;;;45.87;30.57;;;-2.00;99.90;;;;;;5095100;28;20042;-77
2024/01/11 07:07:35;;;;;;;45.23;30.57;;;-1.90;99.90;;;;;;5094943;28;20489;-77
2024/01/11 07:10:01;;;;;;;48.00;31.42;;;-1.90;99.90;;;;;;5094595;28;20097;-77
2024/01/11 07:12:27;;;;;;;51.77;32.63;;;-1.90;99.90;;;;;;5094864;28;20048;-78
2024/01/11 07:14:53;;;;;;;50.33;31.00;;;-1.90;99.90;;;;;;5094469;28;20112;-76
2024/01/11 07:17:19;;;;;;;51.50;32.70;;;-1.90;99.90;;;;;;5095114;28;20481;-77
2024/01/11 07:19:44;;;;;;;49.57;32.70;;;-1.80;99.90;;;;;;5094791;28;20086;-77
2024/01/11 07:22:10;;;;;;;52.93;32.70;;;-1.80;99.90;;;;;;5094551;28;20071;-77
2024/01/11 07:24:40;;;;;;;51.13;33.70;;;-1.80;99.90;;;;;;5093430;28;20127;-77
2024/01/11 07:27:06;;;;;;;46.75;31.13;;;-1.80;99.90;;;;;;5094253;28;20039;-77
2024/01/11 07:29:35;;;;;;;48.67;33.00;;;-1.80;99.90;;;;;;5094305;28;20051;-77
2024/01/11 07:32:01;;;;;;;46.35;31.83;;;-1.80;99.90;;;;;;5094290;28;20083;-77
2024/01/11 07:34:27;;;;;;;47.08;31.58;;;-1.70;99.90;;;;;;5093167;28;20055;-77
2024/01/11 07:36:53;;;;;;;50.85;32.90;;;-1.70;99.90;;;;;;5093933;28;20560;-77
2024/01/11 07:39:19;;;;;;;45.67;30.60;;;-1.70;99.90;;;;;;5094317;28;20135;-77
2024/01/11 07:41:45;;;;;;;51.65;32.55;;;-1.70;99.90;;;;;;5094296;28;20282;-77
2024/01/11 07:44:11;;;;;;;48.80;32.87;;;-1.70;99.90;;;;;;5093881;28;20407;-77
2024/01/11 07:46:36;;;;;;;47.70;32.23;;;-1.60;99.90;;;;;;5094206;28;20044;-77
2024/01/11 07:49:03;;;;;;;51.43;32.73;;;-1.70;99.90;;;;;;5093662;28;20056;-77
2024/01/11 07:51:28;;;;;;;53.67;33.13;;;-1.60;99.90;;;;;;5094219;28;20383;-77
2024/01/11 07:53:54;;;;;;;50.07;33.03;;;-1.60;99.90;;;;;;5093916;28;20073;-76
2024/01/11 07:56:20;;;;;;;50.83;33.50;;;-1.50;99.90;;;;;;5093697;28;20044;-76
2024/01/11 07:58:46;;;;;;;53.27;32.33;;;-1.50;99.90;;;;;;5093760;28;20170;-77
2024/01/11 08:01:12;;;;;;;48.58;31.98;;;-1.50;99.90;;;;;;5093970;28;20044;-76
2024/01/11 08:03:38;;;;;;;49.90;33.60;;;-1.50;99.90;;;;;;5093897;28;20460;-76
2024/01/11 08:06:07;;;;;;;50.60;33.13;;;-1.50;99.90;;;;;;5092578;28;20133;-76
2024/01/11 08:08:33;;;;;;;49.22;33.00;;;-1.50;99.90;;;;;;5093775;28;20092;-76
2024/01/11 08:10:59;;;;;;;50.05;32.88;;;-1.40;99.90;;;;;;5093385;28;20083;-76
2024/01/11 08:13:25;;;;;;;51.37;32.47;;;-1.40;99.90;;;;;;5093535;28;20140;-77
2024/01/11 08:15:51;;;;;;;52.07;34.80;;;-1.40;99.90;;;;;;5093755;28;20036;-77
2024/01/11 08:18:19;;;;;;;52.53;33.17;;;-1.40;99.90;;;;;;5093487;28;20052;-77
2024/01/11 08:20:44;;;;;;;54.45;34.30;;;-1.40;99.90;;;;;;5093546;28;20468;-73
2024/01/11 08:23:11;;;;;;;54.77;35.20;;;-1.30;99.90;;;;;;5093378;28;20132;-80
2024/01/11 08:25:36;;;;;;;50.85;33.20;;;-1.30;99.90;;;;;;5092229;28;20048;-80
2024/01/11 08:28:03;;;;;;;48.80;32.50;;;-1.30;99.90;;;;;;5092981;28;20044;-80
2024/01/11 08:30:29;;;;;;;51.88;33.78;;;-1.30;99.90;;;;;;5092440;28;20098;-81
2024/01/11 08:32:55;;;;;;;50.17;33.53;;;-1.20;99.90;;;;;;5093600;28;20044;-81
2024/01/11 08:35:21;;;;;;;49.92;33.15;;;-1.20;99.90;;;;;;5092318;28;20036;-81
2024/01/11 08:37:47;;;;;;;50.20;32.30;;;-1.20;99.90;;;;;;5093300;28;20044;-78
2024/01/11 08:40:13;;;;;;;52.28;34.33;;;-1.20;99.90;;;;;;5093036;28;20048;-77
2024/01/11 08:42:41;;;;;;;52.17;34.80;;;-1.20;99.90;;;;;;5093044;28;20554;-78
2024/01/11 08:45:07;;;;;;;51.42;34.00;;;-1.10;99.90;;;;;;5093085;28;20148;-78
2024/01/11 08:47:34;;;;;;;53.25;34.25;;;-1.10;99.90;;;;;;5093214;28;20048;-78
2024/01/11 08:50:00;;;;;;;50.65;33.42;;;-1.10;99.90;;;;;;5091469;28;20121;-78
2024/01/11 08:52:26;;;;;;;51.80;34.13;;;-1.00;99.90;;;;;;5093077;28;20134;-78
2024/01/11 08:54:51;;;;;;;50.47;32.17;;;-1.00;99.90;;;;;;5092579;28;20214;-79
2024/01/11 08:57:17;;;;;;;51.17;33.37;;;-1.00;99.90;;;;;;5092804;28;20044;-78
2024/01/11 08:59:43;;;;;;;49.90;33.43;;;-0.90;99.90;;;;;;5092167;28;20551;-79
2024/01/11 09:02:08;;;;;;;50.67;33.37;;;-0.90;99.90;;;;;;5092878;28;20078;-78
2024/01/11 09:04:34;;;;;;;50.70;33.83;;;-0.80;99.90;;;;;;5093077;28;20040;-78
2024/01/11 09:07:00;;;;;;;51.53;34.20;;;-0.80;99.90;;;;;;5093821;28;20059;-79
2024/01/11 09:09:26;;;;;;;53.07;34.33;;;-0.80;99.90;;;;;;5097154;28;20044;-79
2024/01/11 09:11:51;;;;;;;50.93;34.07;;;-0.80;99.90;;;;;;5095816;28;20086;-81
2024/01/11 09:14:17;;;;;;;49.60;33.10;;;-0.70;99.90;;;;;;5096765;28;20054;-80
2024/01/11 09:16:44;;;;;;;48.97;33.17;;;-0.70;99.90;;;;;;5095856;28;20055;-78
2024/01/11 09:19:10;;;;;;;52.65;35.75;;;-0.60;99.90;;;;;;5095700;28;20052;-77
2024/01/11 09:21:36;;;;;;;54.90;34.33;;;-0.60;99.90;;;;;;5095767;28;20048;-78
2024/01/11 09:24:02;;;;;;;48.57;32.50;;;-0.50;99.90;;;;;;5079058;28;20056;-77
2024/01/11 09:26:28;;;;;;;45.87;31.57;;;-0.50;99.90;;;;;;5095641;28;20292;-78
2024/01/11 09:28:53;;;;;;;50.80;34.07;;;-0.50;99.90;;;;;;5097032;28;20044;-78
2024/01/11 09:31:19;;;;;;;48.37;33.17;;;-0.40;99.90;;;;;;5095521;28;20127;-78
2024/01/11 09:33:45;;;;;;;50.40;33.33;;;-0.40;99.90;;;;;;5096739;28;20044;-78
2024/01/11 09:36:11;;;;;;;50.70;33.30;;;-0.30;99.90;;;;;;5096366;28;20454;-76
2024/01/11 09:38:37;;;;;;;49.53;32.00;;;-0.40;99.90;;;;;;5096469;28;20080;-77
2024/01/11 09:41:08;;;;;;;47.67;32.03;;;-0.30;99.90;;;;;;5095284;28;20080;-76
2024/01/11 09:43:35;;;;;;;48.13;31.35;;;-0.30;99.90;;;;;;5096578;28;20501;-76
2024/01/11 09:46:05;;;;;;;48.53;31.63;;;-0.30;99.90;;;;;;5096592;28;20513;-75
2024/01/11 09:48:34;;;;;;;46.00;31.40;;;-0.20;99.90;;;;;;5095172;28;20079;-77
2024/01/11 09:51:07;;;;;;;46.60;31.50;;;-0.20;99.90;;;;;;5096394;28;20043;-77
2024/01/11 09:53:33;;;;;;;47.88;31.05;;;-0.10;99.90;;;;;;5096188;28;20048;-78
2024/01/11 09:56:00;;;;;;;44.22;30.65;;;-0.10;99.90;;;;;;5096394;28;20043;-77
2024/01/11 09:58:26;;;;;;;42.05;29.25;;;0.00;99.90;;;;;;5096116;28;20048;-81
2024/01/11 10:00:59;;;;;;;42.30;28.23;;;0.00;99.90;;;;;;5095024;28;20048;-81
2024/01/11 10:03:26;;;;;;;41.78;28.27;;;0.10;99.90;;;;;;5095939;28;20056;-78
2024/01/11 10:05:56;;;;;;;43.28;29.73;;;0.10;99.90;;;;;;5095556;28;20048;-78
2024/01/11 10:08:23;;;;;;;42.88;28.98;;;0.10;99.90;;;;;;5089101;28;20401;-78
2024/01/11 10:10:49;;;;;;;42.00;29.05;;;0.20;99.90;;;;;;5095802;28;20497;-74
2024/01/11 10:13:16;;;;;;;47.80;30.03;;;0.30;99.90;;;;;;5095888;28;20047;-77
2024/01/11 10:15:43;;;;;;;40.65;28.33;;;0.20;99.90;;;;;;5095928;28;20084;-72
2024/01/11 10:18:09;;;;;;;40.00;27.45;;;0.30;99.90;;;;;;5095820;28;20048;-73
2024/01/11 10:20:34;;;;;;;42.63;28.98;;;0.30;99.90;;;;;;5095492;28;20448;-71
2024/01/11 10:23:01;;;;;;;39.40;26.30;;;0.40;99.90;;;;;;5095884;28;20077;-75
2024/01/11 10:25:28;;;;;;;40.45;28.10;;;0.50;99.90;;;;;;5095269;28;20067;-75
2024/01/11 10:27:54;;;;;;;41.30;28.25;;;0.40;99.90;;;;;;5095771;28;20432;-76
2024/01/11 10:30:22;;;;;;;42.97;28.73;;;0.40;99.90;;;;;;5095367;28;20093;-74
2024/01/11 10:32:48;;;;;;;40.13;27.17;;;0.50;99.90;;;;;;5095736;28;20048;-75
2024/01/11 10:35:14;;;;;;;43.70;29.15;;;0.50;99.90;;;;;;5095175;28;20040;-75
2024/01/11 10:37:42;;;;;;;42.38;28.42;;;0.50;99.90;;;;;;5094188;28;20489;-76
2024/01/11 10:40:15;;;;;;;43.70;29.25;;;0.50;99.90;;;;;;5095561;28;20092;-77
2024/01/11 10:42:49;;;;;;;42.08;28.23;;;0.50;99.90;;;;;;5094661;28;20062;-76
2024/01/11 10:45:16;;;;;;;39.92;27.80;;;0.50;99.90;;;;;;5095500;28;20068;-76
2024/01/11 10:48:01;;;;;;;40.58;27.05;;;0.60;99.90;;;;;;5093677;28;20051;-75
2024/01/11 10:50:33;;;;;;;40.42;27.90;;;0.60;99.90;;;;;;5095328;28;20052;-72
2024/01/11 10:53:11;;;;;;;40.58;27.45;;;0.60;99.90;;;;;;5095177;28;20040;-76
2024/01/11 10:55:38;;;;;;;42.13;27.95;;;0.60;99.90;;;;;;5094851;28;20473;-82
2024/01/11 10:58:05;;;;;;;42.03;27.08;;;0.70;99.90;;;;;;5095082;28;20055;-79
2024/01/11 11:00:31;;;;;;;39.80;26.00;;;0.70;99.90;;;;;;5094747;28;20090;-79
2024/01/11 11:03:02;;;;;;;37.83;25.80;;;0.70;99.90;;;;;;5095298;28;20405;-77
2024/01/11 11:05:31;;;;;;;37.70;25.35;;;0.70;99.90;;;;;;5095000;28;20036;-78
2024/01/11 11:08:01;;;;;;;37.22;25.50;;;0.70;99.90;;;;;;5095233;28;20047;-77
2024/01/11 11:10:29;;;;;;;39.88;27.38;;;0.80;99.90;;;;;;5094815;28;20083;-76
2024/01/11 11:12:57;;;;;;;37.22;25.00;;;0.80;99.90;;;;;;5094684;28;20051;-76
2024/01/11 11:15:24;;;;;;;39.47;25.60;;;0.70;99.90;;;;;;5094647;28;20052;-77
2024/01/11 11:17:50;;;;;;;37.63;24.88;;;0.80;99.90;;;;;;5094812;28;20108;-77
2024/01/11 11:20:16;;;;;;;37.78;25.88;;;0.80;99.90;;;;;;5093587;28;20048;-78
2024/01/11 11:22:42;;;;;;;39.72;26.05;;;0.80;99.90;;;;;;5094310;28;20044;-78
2024/01/11 11:25:10;;;;;;;38.45;25.65;;;0.80;99.90;;;;;;5094438;28;20040;-82
2024/01/11 11:27:36;;;;;;;36.95;24.27;;;0.80;99.90;;;;;;5094173;28;20044;-82
2024/01/11 11:30:04;;;;;;;38.78;25.63;;;0.90;99.90;;;;;;5093987;28;20131;-76
2024/01/11 11:32:43;;;;;;;34.67;24.25;;;0.90;99.90;;;;;;5094247;28;20044;-74
2024/01/11 11:35:09;;;;;;;38.85;24.92;;;1.00;99.90;;;;;;5094256;28;20044;-74
2024/01/11 11:37:38;;;;;;;40.10;24.70;;;1.00;99.90;;;;;;5093976;28;20497;-74
2024/01/11 11:40:10;;;;;;;37.97;24.98;;;1.00;99.90;;;;;;5094079;28;20043;-72
2024/01/11 11:42:36;;;;;;;37.00;24.98;;;1.00;99.90;;;;;;5094229;28;20393;-80
2024/01/11 11:45:03;;;;;;;36.87;23.90;;;1.10;99.90;;;;;;5093419;28;20052;-78
2024/01/11 11:47:37;;;;;;;41.53;25.67;;;1.10;99.90;;;;;;5094016;28;20347;-77
2024/01/11 11:50:10;;;;;;;33.97;23.83;;;1.10;99.90;;;;;;5094167;28;20064;-77
2024/01/11 11:52:39;;;;;;;37.65;25.27;;;1.10;99.90;;;;;;5093613;28;20047;-77
2024/01/11 11:55:07;;;;;;;39.08;25.05;;;1.10;99.90;;;;;;5093785;28;20478;-77
2024/01/11 11:57:34;;;;;;;37.72;24.25;;;1.20;99.90;;;;;;5092914;28;20048;-77
2024/01/11 12:00:03;;;;;;;41.05;24.90;;;1.20;99.90;;;;;;5092788;28;20047;-78
2024/01/11 12:02:32;;;;;;;37.28;24.95;;;1.20;99.90;;;;;;5093744;28;20048;-77
2024/01/11 12:04:58;;;;;;;37.85;25.25;;;1.30;99.90;;;;;;5093712;28;20040;-84
2024/01/11 12:07:24;;;;;;;38.87;25.07;;;1.20;99.90;;;;;;5094132;28;20133;-82
2024/01/11 12:09:52;;;;;;;36.05;24.10;;;1.30;99.90;;;;;;5094393;28;20410;-74
2024/01/11 12:12:20;;;;;;;38.42;24.48;;;1.30;99.90;;;;;;5093701;28;20070;-75
2024/01/11 12:14:49;;;;;;;40.05;25.30;;;1.30;99.90;;;;;;5093340;28;20119;-78
2024/01/11 12:17:15;;;;;;;41.67;26.70;;;1.30;99.90;;;;;;5093664;28;20105;-75
2024/01/11 12:19:42;;;;;;;40.42;25.25;;;1.30;99.90;;;;;;5093038;28;20051;-80
2024/01/11 12:22:08;;;;;;;41.63;26.02;;;1.30;99.90;;;;;;5093530;28;20048;-80
2024/01/11 12:24:34;;;;;;;37.13;24.42;;;1.30;99.90;;;;;;5093159;28;20052;-79